Mobirise responsive web design software

BENAVENTE

METAR: BENAV 222005Z 19014KT 19/17 Q1011
Latest Report: 2017-11-22 20:08:03Z (2 minutes ago)

 07:29 LT      17:13 LT

Location: Benavente (Tertúlia CVB)
Lat: 385448N Long: 0084709W
Elevation: 30.5m/100FT
Runway: 10/28 (370x20m)
Runway: 15/33 (520x20m)
Frequency: 122.675 Mhz

Approved Traffic: Ultralight Aircraft
Hours of Operation: HJ
image

PRESENT WEATHER - BENAVENTE

Latest Report: 2017-11-22 20:08:03Z
 

190/14KT

19ºC

17ºC

1011 hPa

0.00 mm

WEATHER HISTORY

[ All times in Zulu ]

  SEARCH METAR HISTORY
METAR (Last Hour)
BENAV 222000Z 19016KT 19/17 Q1011
BENAV 221950Z 18014KT 19/17 Q1011
BENAV 221940Z 18012KT 19/17 Q1011
BENAV 221930Z 18012KT 19/17 Q1011
BENAV 221920Z 19010KT 19/17 Q1011
BENAV 221910Z 19010KT 19/16 Q1011
Wind Trend (Last Hour)
Average Wind Direction: 190 °
Average Wind Speed: 12 KT
 
Maximum Wind Speed: 19 KT
Maximum Gust: 21 KT
 
Station records since2016-06-17 11:10:51
Minimum Pressure: 993 hPa @ 2017-02-12 13:59:15
Maximum Pressure: 1037 hPa @ 2016-12-23 09:25:33
  
Minimum Temperature: -4° C @ 2017-01-19 07:49:36
Maximum Temperature: 41° C @ 2016-09-05 14:40:19
  
Maximum Wind: 39 KT @ 2017-02-09 17:25:27
Maximum Gust: 43 KT @ 2017-02-09 17:25:27
  
Maximum Daily Rain (mm): 38.35 mm @ 2017-05-11 22:06:32
Days without rain: 10 days (since 2017-11-12 06:14:26)